createdAt,value
2023-04-16T00:01:47.815Z,8.80
2023-04-16T00:04:17.189Z,8.80
2023-04-16T00:06:46.346Z,8.70
2023-04-16T00:09:14.368Z,8.80
2023-04-16T00:11:45.295Z,8.80
2023-04-16T00:14:14.542Z,8.80
2023-04-16T00:16:44.168Z,8.80
2023-04-16T00:19:12.325Z,8.80
2023-04-16T00:21:42.798Z,8.80
2023-04-16T00:24:12.064Z,8.80
2023-04-16T00:26:44.160Z,8.80
2023-04-16T00:29:13.577Z,8.80
2023-04-16T00:31:42.920Z,8.80
2023-04-16T00:34:11.342Z,8.80
2023-04-16T00:36:40.811Z,8.80
2023-04-16T00:39:10.216Z,8.70
2023-04-16T00:41:39.819Z,8.70
2023-04-16T00:44:09.130Z,8.70
2023-04-16T00:46:39.598Z,8.70
2023-04-16T00:49:08.052Z,8.70
2023-04-16T00:51:38.748Z,8.70
2023-04-16T00:54:07.967Z,8.60
2023-04-16T00:56:37.893Z,8.60
2023-04-16T00:59:07.520Z,8.60
2023-04-16T01:01:37.208Z,8.50
2023-04-16T01:04:08.148Z,8.50
2023-04-16T01:06:37.589Z,8.50
2023-04-16T01:09:07.130Z,8.70
2023-04-16T01:11:37.133Z,9.20
2023-04-16T01:14:06.407Z,8.50
2023-04-16T01:16:37.023Z,8.50
2023-04-16T01:19:09.233Z,8.50
2023-04-16T01:21:40.045Z,8.50
2023-04-16T01:24:08.506Z,8.50
2023-04-16T01:26:38.930Z,8.50
2023-04-16T01:29:07.139Z,8.50
2023-04-16T01:31:35.649Z,8.90
2023-04-16T01:34:26.829Z,8.60
2023-04-16T01:36:56.369Z,8.60
2023-04-16T01:39:25.615Z,8.60
2023-04-16T01:41:56.072Z,8.60
2023-04-16T01:44:24.107Z,8.60
2023-04-16T01:46:53.520Z,8.60
2023-04-16T01:49:23.490Z,8.60
2023-04-16T01:51:52.781Z,8.60
2023-04-16T01:54:22.176Z,8.60
2023-04-16T01:56:51.926Z,8.60
2023-04-16T01:59:20.514Z,10.10
2023-04-16T02:01:50.095Z,8.60
2023-04-16T02:04:19.415Z,8.60
2023-04-16T02:06:50.228Z,8.60
2023-04-16T02:09:21.216Z,8.60
2023-04-16T02:11:50.552Z,8.60
2023-04-16T02:14:19.787Z,8.50
2023-04-16T02:16:49.463Z,8.50
2023-04-16T02:19:33.581Z,8.50
2023-04-16T02:22:02.645Z,8.50
2023-04-16T02:24:32.090Z,8.50
2023-04-16T02:27:07.141Z,8.40
2023-04-16T02:29:36.664Z,8.40
2023-04-16T02:32:17.485Z,8.40
2023-04-16T02:34:48.754Z,8.40
2023-04-16T02:37:18.148Z,8.40
2023-04-16T02:39:49.845Z,8.30
2023-04-16T02:42:19.116Z,8.30
2023-04-16T02:44:47.240Z,8.30
2023-04-16T02:47:15.419Z,8.30
2023-04-16T02:49:46.017Z,8.20
2023-04-16T02:52:15.782Z,8.20
2023-04-16T02:54:45.353Z,8.20
2023-04-16T02:57:15.994Z,8.20
2023-04-16T02:59:45.221Z,8.20
2023-04-16T03:02:13.930Z,8.20
2023-04-16T03:04:43.595Z,8.20
2023-04-16T03:07:13.747Z,8.20
2023-04-16T03:09:43.038Z,8.20
2023-04-16T03:12:12.402Z,8.30
2023-04-16T03:14:41.785Z,8.30
2023-04-16T03:17:11.497Z,8.30
2023-04-16T03:19:39.566Z,8.30
2023-04-16T03:22:08.909Z,8.30
2023-04-16T03:24:38.299Z,8.30
2023-04-16T03:27:08.539Z,8.30
2023-04-16T03:29:39.135Z,8.30
2023-04-16T03:32:12.527Z,8.30
2023-04-16T03:34:40.812Z,8.30
2023-04-16T03:37:13.311Z,8.80
2023-04-16T03:39:43.868Z,9.40
2023-04-16T03:42:12.968Z,8.40
2023-04-16T03:44:41.086Z,8.40
2023-04-16T03:47:11.742Z,8.40
2023-04-16T03:49:41.064Z,8.40
2023-04-16T03:52:12.454Z,8.40
2023-04-16T03:54:41.013Z,8.40
2023-04-16T03:57:21.164Z,8.40
2023-04-16T03:59:49.609Z,8.30
2023-04-16T04:02:21.237Z,8.30
2023-04-16T04:04:51.506Z,8.30
2023-04-16T04:07:20.940Z,8.30
2023-04-16T04:09:51.464Z,8.30
2023-04-16T04:12:19.507Z,8.30
2023-04-16T04:14:49.703Z,8.30
2023-04-16T04:17:20.310Z,8.30
2023-04-16T04:20:00.310Z,8.30
2023-04-16T04:22:29.213Z,8.30
2023-04-16T04:24:58.526Z,12.00
2023-04-16T04:27:30.316Z,8.30
2023-04-16T04:29:59.678Z,8.20
2023-04-16T04:32:29.121Z,8.20
2023-04-16T04:34:57.267Z,8.20
2023-04-16T04:37:26.557Z,8.10
2023-04-16T04:39:55.920Z,8.10
2023-04-16T04:42:25.665Z,8.10
2023-04-16T04:44:57.445Z,8.10
2023-04-16T04:47:25.787Z,8.00
2023-04-16T04:49:57.834Z,8.00
2023-04-16T04:52:26.516Z,8.00
2023-04-16T04:54:56.312Z,8.00
2023-04-16T04:57:24.507Z,10.40
2023-04-16T04:59:55.507Z,8.00
2023-04-16T05:02:24.191Z,8.00
2023-04-16T05:04:54.733Z,8.00
2023-04-16T05:07:26.819Z,8.00
2023-04-16T05:09:56.128Z,8.00
2023-04-16T05:12:25.463Z,8.00
2023-04-16T05:14:53.520Z,8.00
2023-04-16T05:17:22.839Z,8.00
2023-04-16T05:19:50.851Z,7.90
2023-04-16T05:22:21.624Z,8.00
2023-04-16T05:24:52.351Z,8.00
2023-04-16T05:27:20.402Z,8.60
2023-04-16T05:29:48.395Z,8.00
2023-04-16T05:32:18.969Z,8.00
2023-04-16T05:34:48.177Z,8.00
2023-04-16T05:37:16.294Z,7.90
2023-04-16T05:39:45.796Z,8.00
2023-04-16T05:42:16.530Z,8.00
2023-04-16T05:44:45.930Z,8.00
2023-04-16T05:47:14.163Z,8.00
2023-04-16T05:49:43.382Z,8.00
2023-04-16T05:52:13.913Z,8.00
2023-04-16T05:54:43.228Z,8.00
2023-04-16T05:57:12.910Z,8.00
2023-04-16T05:59:42.401Z,8.00
2023-04-16T06:02:13.140Z,8.00
2023-04-16T06:04:42.473Z,8.00
2023-04-16T06:07:12.905Z,8.00
2023-04-16T06:09:42.388Z,8.10
2023-04-16T06:12:11.825Z,8.10
2023-04-16T06:14:42.536Z,8.10
2023-04-16T06:17:10.643Z,8.10
2023-04-16T06:19:38.690Z,8.10
2023-04-16T06:22:08.389Z,8.10
2023-04-16T06:24:36.608Z,8.10
2023-04-16T06:27:06.085Z,8.10
2023-04-16T06:29:41.248Z,8.10
2023-04-16T06:32:12.695Z,8.10
2023-04-16T06:34:41.974Z,8.10
2023-04-16T06:37:11.305Z,8.20
2023-04-16T06:39:40.674Z,8.10
2023-04-16T06:42:10.096Z,8.10
2023-04-16T06:44:39.986Z,8.10
2023-04-16T06:47:12.388Z,8.10
2023-04-16T06:49:41.662Z,8.10
2023-04-16T06:52:11.046Z,8.10
2023-04-16T06:54:40.731Z,8.10
2023-04-16T06:57:10.045Z,8.10
2023-04-16T06:59:39.511Z,8.10
2023-04-16T07:02:11.679Z,8.20
2023-04-16T07:04:41.018Z,8.20
2023-04-16T07:07:10.614Z,8.30
2023-04-16T07:09:39.837Z,8.40
2023-04-16T07:12:10.449Z,8.50
2023-04-16T07:14:38.654Z,8.80
2023-04-16T07:17:09.176Z,9.50
2023-04-16T07:19:38.599Z,9.00
2023-04-16T07:22:08.213Z,9.00
2023-04-16T07:24:36.578Z,9.00
2023-04-16T07:27:06.100Z,9.10
2023-04-16T07:29:35.657Z,9.20
2023-04-16T07:32:05.130Z,9.40
2023-04-16T07:34:33.727Z,9.50
2023-04-16T07:37:03.237Z,9.60
2023-04-16T07:39:31.348Z,9.80
2023-04-16T07:42:00.564Z,9.40
2023-04-16T07:44:29.701Z,9.80
2023-04-16T07:47:00.056Z,9.70
2023-04-16T07:49:29.344Z,9.70
2023-04-16T07:51:58.600Z,9.80
2023-04-16T07:54:29.201Z,9.80
2023-04-16T07:56:59.820Z,9.90
2023-04-16T07:59:29.460Z,9.80
2023-04-16T08:01:59.053Z,9.90
2023-04-16T08:04:27.627Z,10.00
2023-04-16T08:06:56.160Z,10.00
2023-04-16T08:09:29.715Z,10.10
2023-04-16T08:11:57.925Z,10.20
2023-04-16T08:14:26.224Z,10.30
2023-04-16T08:16:55.648Z,10.90
2023-04-16T08:19:25.000Z,10.10
2023-04-16T08:21:54.269Z,10.20
2023-04-16T08:24:23.575Z,10.30
2023-04-16T08:26:53.013Z,10.40
2023-04-16T08:29:21.378Z,10.50
2023-04-16T08:31:50.825Z,10.50
2023-04-16T08:34:18.782Z,10.60
2023-04-16T08:36:47.063Z,10.50
2023-04-16T08:39:15.278Z,10.60
2023-04-16T08:41:48.100Z,10.60
2023-04-16T08:44:27.491Z,11.50
2023-04-16T08:46:58.790Z,10.90
2023-04-16T08:49:28.149Z,11.00
2023-04-16T08:51:59.036Z,10.90
2023-04-16T08:54:39.783Z,10.90
2023-04-16T08:57:11.775Z,11.00
2023-04-16T08:59:47.170Z,11.20
2023-04-16T09:02:17.065Z,11.60
2023-04-16T09:04:46.122Z,11.80
2023-04-16T09:07:15.618Z,8.80
2023-04-16T09:09:46.526Z,11.90
2023-04-16T09:12:17.577Z,13.10
2023-04-16T09:14:50.970Z,12.00
2023-04-16T09:17:21.763Z,12.20
2023-04-16T09:19:51.148Z,12.20
2023-04-16T09:22:20.989Z,12.30
2023-04-16T09:24:49.034Z,12.10
2023-04-16T09:27:18.150Z,12.10
2023-04-16T09:29:49.154Z,12.20
2023-04-16T09:32:19.682Z,12.70
2023-04-16T09:34:59.823Z,12.30
2023-04-16T09:37:30.893Z,12.10
2023-04-16T09:40:00.800Z,12.10
2023-04-16T09:42:32.947Z,12.10
2023-04-16T09:45:04.990Z,12.20
2023-04-16T09:47:44.494Z,12.20
2023-04-16T09:50:18.620Z,12.30
2023-04-16T09:52:52.112Z,12.30
2023-04-16T09:55:24.922Z,12.20
2023-04-16T09:58:02.392Z,12.10
2023-04-16T10:00:32.205Z,12.20
2023-04-16T10:03:06.789Z,12.20
2023-04-16T10:05:36.561Z,12.20
2023-04-16T10:08:15.184Z,12.40
2023-04-16T10:10:44.594Z,12.70
2023-04-16T10:13:17.461Z,12.80
2023-04-16T10:15:47.450Z,13.10
2023-04-16T10:18:19.193Z,13.10
2023-04-16T10:20:47.365Z,13.00
2023-04-16T10:23:17.406Z,13.00
2023-04-16T10:25:47.110Z,13.00
2023-04-16T10:28:16.342Z,13.50
2023-04-16T10:30:53.570Z,12.80
2023-04-16T10:33:24.561Z,13.30
2023-04-16T10:36:08.201Z,13.90
2023-04-16T10:38:42.598Z,14.20
2023-04-16T10:41:11.924Z,14.10
2023-04-16T10:43:46.502Z,14.00
2023-04-16T10:46:22.556Z,14.30
2023-04-16T10:48:56.171Z,14.40
2023-04-16T10:51:31.730Z,13.30
2023-04-16T10:54:05.493Z,12.90
2023-04-16T10:56:35.305Z,15.70
2023-04-16T10:59:08.551Z,12.90
2023-04-16T11:01:43.418Z,12.90
2023-04-16T11:04:36.250Z,12.60
2023-04-16T11:07:22.234Z,12.30
2023-04-16T11:09:56.444Z,12.10
2023-04-16T11:12:30.228Z,11.90
2023-04-16T11:15:02.901Z,11.70
2023-04-16T11:17:40.484Z,11.70
2023-04-16T11:20:17.377Z,11.50
2023-04-16T11:22:51.600Z,11.30
2023-04-16T11:25:22.272Z,11.40
2023-04-16T11:27:54.116Z,11.50
2023-04-16T11:30:31.129Z,11.50
2023-04-16T11:33:02.142Z,11.50
2023-04-16T11:35:30.383Z,11.40
2023-04-16T11:38:00.155Z,11.50
2023-04-16T11:40:31.759Z,11.50
2023-04-16T11:43:03.922Z,11.50
2023-04-16T11:45:32.123Z,11.40
2023-04-16T11:48:02.760Z,11.40
2023-04-16T11:50:30.822Z,12.40
2023-04-16T11:53:06.280Z,11.40
2023-04-16T11:55:45.632Z,11.40
2023-04-16T11:58:15.953Z,11.60
2023-04-16T12:00:45.212Z,11.60
2023-04-16T12:03:16.450Z,11.60
2023-04-16T12:05:46.011Z,11.90
2023-04-16T12:08:15.296Z,12.20
2023-04-16T12:10:55.569Z,12.30
2023-04-16T12:13:24.757Z,12.30
2023-04-16T12:15:55.989Z,13.00
2023-04-16T12:18:29.240Z,12.80
2023-04-16T12:20:58.490Z,11.80
2023-04-16T12:23:32.100Z,11.60
2023-04-16T12:26:12.423Z,11.50
2023-04-16T12:28:40.941Z,11.60
2023-04-16T12:31:11.145Z,11.50
2023-04-16T12:33:43.660Z,11.50
2023-04-16T12:36:20.593Z,11.50
2023-04-16T12:38:49.880Z,11.40
2023-04-16T12:41:19.082Z,11.50
2023-04-16T12:43:47.144Z,11.50
2023-04-16T12:46:15.209Z,11.60
2023-04-16T12:48:47.141Z,11.80
2023-04-16T12:51:15.189Z,11.90
2023-04-16T12:53:43.269Z,11.90
2023-04-16T12:56:12.541Z,11.90
2023-04-16T12:58:42.993Z,12.10
2023-04-16T13:01:12.978Z,12.30
2023-04-16T13:03:41.242Z,12.40
2023-04-16T13:06:10.760Z,12.50
2023-04-16T13:08:40.040Z,12.50
2023-04-16T13:11:08.906Z,12.70
2023-04-16T13:13:37.168Z,12.70
2023-04-16T13:16:08.303Z,15.00
2023-04-16T13:18:39.246Z,12.70
2023-04-16T13:21:07.743Z,12.60
2023-04-16T13:23:39.605Z,12.60
2023-04-16T13:26:08.874Z,12.50
2023-04-16T13:28:38.157Z,12.50
2023-04-16T13:31:07.534Z,12.50
2023-04-16T13:33:35.904Z,12.50
2023-04-16T13:36:05.553Z,12.40
2023-04-16T13:38:34.904Z,12.40
2023-04-16T13:41:04.638Z,12.40
2023-04-16T13:43:32.798Z,12.50
2023-04-16T13:46:02.194Z,12.50
2023-04-16T13:48:31.510Z,12.40
2023-04-16T13:50:59.670Z,12.40
2023-04-16T13:53:27.736Z,12.40
2023-04-16T13:55:55.941Z,12.50
2023-04-16T13:58:26.238Z,12.50
2023-04-16T14:00:55.989Z,12.70
2023-04-16T14:03:28.358Z,12.60
2023-04-16T14:05:58.030Z,12.50
2023-04-16T14:08:28.771Z,12.40
2023-04-16T14:10:57.793Z,12.40
2023-04-16T14:13:29.889Z,12.50
2023-04-16T14:15:59.242Z,12.50
2023-04-16T14:18:27.293Z,14.10
2023-04-16T14:20:55.358Z,12.50
2023-04-16T14:23:24.609Z,12.60
2023-04-16T14:25:54.039Z,12.70
2023-04-16T14:28:24.801Z,12.70
2023-04-16T14:30:54.160Z,12.70
2023-04-16T14:33:23.765Z,12.70
2023-04-16T14:35:52.198Z,13.60
2023-04-16T14:38:20.904Z,12.70
2023-04-16T14:40:50.208Z,12.80
2023-04-16T14:43:19.435Z,12.80
2023-04-16T14:45:47.571Z,12.90
2023-04-16T14:48:18.262Z,13.00
2023-04-16T14:51:07.654Z,13.00
2023-04-16T14:53:39.784Z,13.00
2023-04-16T14:56:13.608Z,14.80
2023-04-16T14:58:42.809Z,16.00
2023-04-16T15:01:13.694Z,13.00
2023-04-16T15:03:45.683Z,13.10
2023-04-16T15:06:16.599Z,13.10
2023-04-16T15:08:47.575Z,13.10
2023-04-16T15:11:15.667Z,13.20
2023-04-16T15:13:43.990Z,13.10
2023-04-16T15:16:12.358Z,13.10
2023-04-16T15:18:41.859Z,13.00
2023-04-16T15:21:12.861Z,13.00
2023-04-16T15:23:41.230Z,12.90
2023-04-16T15:26:10.540Z,12.80
2023-04-16T15:28:38.636Z,12.80
2023-04-16T15:31:07.199Z,12.70
2023-04-16T15:33:36.525Z,12.80
2023-04-16T15:36:04.914Z,12.80
2023-04-16T15:38:36.775Z,12.80
2023-04-16T15:41:06.297Z,12.70
2023-04-16T15:43:35.790Z,12.60
2023-04-16T15:46:03.828Z,12.50
2023-04-16T15:48:34.466Z,12.90
2023-04-16T15:51:04.005Z,12.40
2023-04-16T15:53:33.477Z,12.50
2023-04-16T15:56:04.102Z,12.40
2023-04-16T15:58:33.696Z,12.40
2023-04-16T16:01:01.930Z,12.40
2023-04-16T16:03:33.442Z,12.40
2023-04-16T16:06:04.010Z,12.40
2023-04-16T16:08:35.508Z,12.80
2023-04-16T16:11:06.129Z,12.40
2023-04-16T16:13:37.150Z,12.30
2023-04-16T16:16:05.932Z,12.20
2023-04-16T16:18:36.520Z,12.10
2023-04-16T16:21:04.985Z,12.00
2023-04-16T16:23:34.636Z,12.00
2023-04-16T16:26:06.384Z,11.90
2023-04-16T16:28:37.530Z,11.90
2023-04-16T16:31:07.086Z,12.00
2023-04-16T16:33:35.286Z,12.00
2023-04-16T16:36:06.094Z,12.40
2023-04-16T16:38:35.674Z,12.10
2023-04-16T16:41:05.093Z,12.10
2023-04-16T16:43:34.502Z,12.10
2023-04-16T16:46:04.748Z,12.10
2023-04-16T16:48:34.240Z,12.10
2023-04-16T16:51:03.455Z,12.10
2023-04-16T16:53:33.976Z,12.60
2023-04-16T16:56:01.996Z,12.00
2023-04-16T16:58:33.835Z,12.00
2023-04-16T17:01:01.946Z,11.90
2023-04-16T17:03:32.878Z,12.30
2023-04-16T17:06:01.299Z,12.00
2023-04-16T17:08:29.788Z,11.90
2023-04-16T17:10:59.016Z,11.90
2023-04-16T17:13:28.392Z,11.90
2023-04-16T17:15:57.865Z,11.80
2023-04-16T17:18:26.086Z,11.80
2023-04-16T17:20:54.358Z,11.70
2023-04-16T17:23:23.777Z,11.70
2023-04-16T17:25:51.894Z,11.70
2023-04-16T17:28:22.030Z,11.60
2023-04-16T17:30:54.173Z,12.00
2023-04-16T17:33:25.968Z,11.50
2023-04-16T17:35:55.312Z,11.40
2023-04-16T17:38:24.575Z,12.00
2023-04-16T17:40:53.879Z,11.40
2023-04-16T17:43:25.237Z,11.30
2023-04-16T17:45:54.608Z,13.60
2023-04-16T17:48:25.292Z,11.20
2023-04-16T17:50:53.450Z,11.20
2023-04-16T17:53:22.757Z,11.10
2023-04-16T17:55:56.659Z,11.10
2023-04-16T17:58:27.591Z,11.00
2023-04-16T18:00:55.870Z,11.00
2023-04-16T18:03:25.709Z,10.90
2023-04-16T18:05:53.980Z,10.90
2023-04-16T18:08:25.255Z,10.90
2023-04-16T18:10:55.375Z,10.80
2023-04-16T18:13:23.903Z,10.80
2023-04-16T18:15:52.919Z,10.80
2023-04-16T18:18:22.298Z,10.80
2023-04-16T18:20:53.029Z,10.70
2023-04-16T18:23:22.554Z,10.70
2023-04-16T18:25:52.192Z,10.70
2023-04-16T18:28:21.966Z,10.60
2023-04-16T18:30:50.496Z,10.60
2023-04-16T18:33:44.437Z,10.60
2023-04-16T18:36:12.401Z,10.60
2023-04-16T18:38:56.975Z,10.60
2023-04-16T18:41:29.017Z,10.50
2023-04-16T18:43:58.605Z,10.50
2023-04-16T18:46:27.506Z,10.50
2023-04-16T18:49:00.163Z,10.50
2023-04-16T18:51:29.894Z,10.40
2023-04-16T18:53:59.192Z,10.40
2023-04-16T18:56:31.025Z,10.40
2023-04-16T18:59:00.313Z,10.40
2023-04-16T19:01:31.629Z,10.40
2023-04-16T19:04:00.070Z,10.30
2023-04-16T19:06:31.831Z,10.30
2023-04-16T19:09:01.330Z,10.30
2023-04-16T19:11:29.487Z,10.30
2023-04-16T19:14:03.159Z,10.30
2023-04-16T19:16:32.493Z,10.30
2023-04-16T19:19:01.992Z,10.30
2023-04-16T19:21:32.682Z,10.30
2023-04-16T19:24:03.224Z,10.30
2023-04-16T19:26:32.653Z,10.20
2023-04-16T19:29:03.227Z,11.20
2023-04-16T19:31:32.659Z,10.20
2023-04-16T19:34:01.986Z,10.20
2023-04-16T19:36:33.372Z,10.20
2023-04-16T19:39:02.999Z,10.20
2023-04-16T19:41:32.367Z,10.20
2023-04-16T19:44:02.918Z,10.20
2023-04-16T19:46:31.053Z,10.30
2023-04-16T19:48:59.463Z,10.30
2023-04-16T19:51:28.103Z,10.20
2023-04-16T19:53:58.829Z,10.20
2023-04-16T19:56:27.151Z,10.30
2023-04-16T19:58:57.721Z,10.20
2023-04-16T20:01:25.938Z,10.20
2023-04-16T20:03:55.793Z,10.20
2023-04-16T20:06:24.260Z,10.20
2023-04-16T20:08:53.790Z,11.20
2023-04-16T20:11:23.242Z,10.20
2023-04-16T20:13:51.401Z,10.20
2023-04-16T20:16:23.764Z,10.20
2023-04-16T20:18:55.335Z,10.20
2023-04-16T20:21:23.426Z,10.20
2023-04-16T20:23:51.551Z,10.20
2023-04-16T20:26:24.647Z,10.20
2023-04-16T20:28:55.151Z,10.20
2023-04-16T20:31:24.536Z,10.20
2023-04-16T20:33:55.296Z,10.10
2023-04-16T20:36:23.788Z,10.10
2023-04-16T20:38:53.976Z,10.10
2023-04-16T20:41:25.327Z,10.10
2023-04-16T20:43:55.095Z,10.10
2023-04-16T20:46:24.285Z,10.10
2023-04-16T20:48:53.828Z,10.00
2023-04-16T20:51:21.971Z,12.30
2023-04-16T20:53:52.285Z,10.00
2023-04-16T20:56:20.504Z,10.00
2023-04-16T20:58:54.275Z,9.90
2023-04-16T21:01:23.663Z,9.90
2023-04-16T21:03:53.748Z,9.90
2023-04-16T21:06:23.523Z,9.80
2023-04-16T21:08:52.793Z,9.80
2023-04-16T21:11:21.016Z,10.80
2023-04-16T21:13:51.613Z,9.70
2023-04-16T21:16:21.167Z,9.70
2023-04-16T21:18:50.673Z,9.70
2023-04-16T21:21:20.143Z,9.70
2023-04-16T21:23:49.646Z,9.70
2023-04-16T21:26:19.047Z,9.70
2023-04-16T21:28:48.425Z,9.60
2023-04-16T21:31:19.173Z,9.60
2023-04-16T21:33:48.986Z,9.60
2023-04-16T21:36:18.247Z,9.50
2023-04-16T21:38:46.400Z,9.50
2023-04-16T21:41:16.407Z,9.80
2023-04-16T21:43:46.992Z,9.40
2023-04-16T21:46:15.074Z,9.40
2023-04-16T21:48:46.073Z,9.30
2023-04-16T21:51:14.134Z,9.30
2023-04-16T21:53:43.388Z,9.30
2023-04-16T21:56:12.610Z,9.30
2023-04-16T21:58:41.885Z,9.30
2023-04-16T22:01:11.340Z,9.30
2023-04-16T22:03:40.955Z,9.90
2023-04-16T22:06:11.613Z,9.30
2023-04-16T22:08:42.267Z,9.30
2023-04-16T22:11:11.509Z,9.30
2023-04-16T22:13:43.249Z,10.60
2023-04-16T22:16:12.935Z,9.30
2023-04-16T22:18:42.789Z,10.30
2023-04-16T22:21:13.447Z,9.20
2023-04-16T22:23:42.815Z,9.20
2023-04-16T22:26:12.915Z,9.20
2023-04-16T22:28:43.383Z,9.10
2023-04-16T22:31:11.428Z,9.10
2023-04-16T22:33:39.506Z,9.00
2023-04-16T22:36:08.163Z,9.00
2023-04-16T22:38:38.872Z,9.00
2023-04-16T22:41:08.103Z,8.90
2023-04-16T22:43:37.430Z,7.90
2023-04-16T22:46:06.813Z,8.80
2023-04-16T22:48:39.788Z,8.70
2023-04-16T22:51:10.030Z,8.70
2023-04-16T22:53:40.632Z,8.70
2023-04-16T22:56:09.035Z,8.70
2023-04-16T22:58:37.162Z,7.50
2023-04-16T23:01:05.382Z,8.70
2023-04-16T23:03:33.745Z,9.20
2023-04-16T23:06:03.928Z,8.60
2023-04-16T23:08:33.184Z,8.60
2023-04-16T23:11:03.891Z,8.60
2023-04-16T23:13:32.162Z,8.60
2023-04-16T23:16:00.372Z,9.60
2023-04-16T23:18:29.724Z,8.60
2023-04-16T23:20:57.910Z,8.50
2023-04-16T23:23:26.107Z,9.40
2023-04-16T23:25:54.397Z,8.50
2023-04-16T23:28:25.024Z,9.80
2023-04-16T23:30:54.388Z,8.50
2023-04-16T23:33:23.753Z,8.50
2023-04-16T23:35:51.826Z,8.50
2023-04-16T23:38:21.097Z,8.50
2023-04-16T23:40:49.189Z,8.50
2023-04-16T23:43:18.589Z,8.50
2023-04-16T23:45:49.279Z,8.50
2023-04-16T23:48:20.051Z,8.50
2023-04-16T23:50:49.284Z,8.50
2023-04-16T23:53:18.542Z,8.50
2023-04-16T23:55:47.777Z,8.50
2023-04-16T23:58:17.200Z,8.50
